Time;durP1;ratioP1;P1;durP2;ratioP2;P2;SDS_P1;SDS_P2;PMS_P1;PMS_P2;Temp;Humidity;BMP_temperature;BMP_pressure;BME280_temperature;BME280_humidity;BME280_pressure;Samples;Min_cycle;Max_cycle;Signal;HPM_P1;HPM_P2
2022/01/08 00:01:24;;;;;;;10.23;3.83;;;1.70;99.90;;;;;;5071647;28;20422;-77
2022/01/08 00:03:51;;;;;;;10.43;4.20;;;1.70;99.90;;;;;;5054901;28;20412;-77
2022/01/08 00:06:17;;;;;;;8.40;3.83;;;1.60;99.90;;;;;;5058063;28;20471;-77
2022/01/08 00:08:43;;;;;;;10.13;3.40;;;1.60;99.90;;;;;;5071838;28;20794;-77
2022/01/08 00:11:13;;;;;;;9.25;3.65;;;1.60;99.90;;;;;;5071138;28;20406;-78
2022/01/08 00:13:40;;;;;;;9.50;3.60;;;1.50;99.90;;;;;;5071324;28;20406;-78
2022/01/08 00:16:06;;;;;;;8.35;3.47;;;1.50;99.90;;;;;;5071493;28;20494;-78
2022/01/08 00:18:31;;;;;;;8.23;3.60;;;1.50;99.90;;;;;;5054725;28;20442;-77
2022/01/08 00:20:57;;;;;;;10.23;4.17;;;1.50;99.90;;;;;;5054402;28;20402;-78
2022/01/08 00:23:23;;;;;;;9.63;3.80;;;1.50;99.90;;;;;;5071270;28;20764;-78
2022/01/08 00:25:48;;;;;;;9.05;3.65;;;1.50;99.90;;;;;;5053947;28;20440;-78
2022/01/08 00:28:14;;;;;;;11.23;4.00;;;1.50;99.90;;;;;;5054626;28;20417;-78
2022/01/08 00:30:40;;;;;;;11.47;3.73;;;1.50;99.90;;;;;;5071309;28;20398;-78
2022/01/08 00:33:06;;;;;;;10.93;3.53;;;1.50;99.90;;;;;;5070978;28;20492;-78
2022/01/08 00:35:34;;;;;;;11.05;3.78;;;1.50;99.90;;;;;;5053560;28;20410;-78
2022/01/08 00:38:01;;;;;;;8.57;3.30;;;1.50;99.90;;;;;;5053245;28;20405;-78
2022/01/08 00:40:27;;;;;;;10.43;3.25;;;1.50;99.90;;;;;;5054176;28;20493;-77
2022/01/08 00:42:52;;;;;;;10.63;3.63;;;1.60;99.90;;;;;;5054037;28;20524;-78
2022/01/08 00:45:18;;;;;;;9.00;3.23;;;1.60;99.90;;;;;;5054109;28;20491;-78
2022/01/08 00:47:44;;;;;;;10.38;2.60;;;1.70;99.90;;;;;;5070557;28;20410;-78
2022/01/08 00:50:12;;;;;;;7.57;2.80;;;1.70;99.90;;;;;;5070550;28;20406;-78
2022/01/08 00:52:41;;;;;;;8.60;2.88;;;1.70;99.90;;;;;;5070716;28;20394;-78
2022/01/08 00:55:08;;;;;;;11.48;3.40;;;1.70;99.90;;;;;;5070443;28;20940;-77
2022/01/08 00:57:34;;;;;;;8.50;3.10;;;1.80;99.90;;;;;;5070443;28;20911;-77
2022/01/08 01:00:00;;;;;;;9.25;2.85;;;1.80;99.90;;;;;;5088807;28;20409;-78
2022/01/08 01:02:26;;;;;;;10.70;3.07;;;1.80;99.90;;;;;;5070830;28;20408;-78
2022/01/08 01:04:51;;;;;;;8.07;3.20;;;1.80;99.90;;;;;;5069967;28;20438;-78
2022/01/08 01:07:17;;;;;;;7.45;3.13;;;1.80;99.90;;;;;;5070003;28;20493;-78
2022/01/08 01:09:43;;;;;;;10.13;3.28;;;1.80;99.90;;;;;;5057853;28;20430;-78
2022/01/08 01:12:09;;;;;;;10.43;2.80;;;1.70;99.90;;;;;;5067895;28;20931;-78
2022/01/08 01:14:34;;;;;;;8.20;2.90;;;1.70;99.90;;;;;;5050325;28;20403;-78
2022/01/08 01:17:00;;;;;;;7.93;3.00;;;1.70;99.90;;;;;;5074200;28;20931;-79
2022/01/08 01:19:26;;;;;;;7.78;3.05;;;1.70;99.90;;;;;;5070755;28;20911;-78
2022/01/08 01:21:54;;;;;;;12.02;3.72;;;1.60;99.90;;;;;;5070148;28;20405;-78
2022/01/08 01:24:23;;;;;;;12.55;3.50;;;1.60;99.90;;;;;;5053372;28;20923;-78
2022/01/08 01:27:16;;;;;;;9.95;3.45;;;1.60;99.90;;;;;;5053777;28;20504;-78
2022/01/08 01:30:01;;;;;;;9.27;3.70;;;1.60;99.90;;;;;;5068003;28;20431;-78
2022/01/08 01:47:00;;;;;;;8.98;4.03;;;1.50;99.90;;;;;;5062787;28;20764;-78
2022/01/08 01:48:59;;;;;;;11.32;4.70;;;1.50;99.90;;;;;;5074372;28;20453;-78
2022/01/08 01:51:25;;;;;;;10.32;4.90;;;1.50;99.90;;;;;;5073940;28;20430;-78
2022/01/08 01:53:51;;;;;;;10.63;4.90;;;1.50;99.90;;;;;;5074298;28;20475;-78
2022/01/08 01:56:20;;;;;;;11.07;4.82;;;1.50;99.90;;;;;;5074308;28;20455;-78
2022/01/08 01:58:46;;;;;;;12.20;5.10;;;1.50;99.90;;;;;;5073715;28;20402;-78
2022/01/08 02:01:12;;;;;;;13.40;5.45;;;1.50;99.90;;;;;;5074026;28;20492;-79
2022/01/08 02:03:39;;;;;;;12.82;5.50;;;1.50;99.90;;;;;;5073956;28;20401;-78
2022/01/08 02:06:05;;;;;;;15.80;6.28;;;1.50;99.90;;;;;;5073753;28;20441;-78
2022/01/08 02:08:31;;;;;;;9.93;4.77;;;1.50;99.90;;;;;;5073671;28;20402;-78
2022/01/08 02:10:57;;;;;;;11.90;5.10;;;1.60;99.90;;;;;;5072998;28;20410;-78
2022/01/08 02:13:27;;;;;;;9.43;4.80;;;1.60;99.90;;;;;;5057321;28;20558;-78
2022/01/08 02:15:55;;;;;;;9.23;4.75;;;1.60;99.90;;;;;;5056899;28;20402;-78
2022/01/08 02:18:27;;;;;;;10.77;4.72;;;1.70;99.90;;;;;;5037745;28;20415;-79
2022/01/08 02:20:58;;;;;;;9.77;5.15;;;1.80;99.90;;;;;;5053532;28;20404;-78
2022/01/08 02:23:24;;;;;;;12.98;5.25;;;1.80;99.90;;;;;;5052956;28;20494;-79
2022/01/08 02:25:50;;;;;;;11.02;4.88;;;1.90;99.90;;;;;;5053369;28;20524;-78
2022/01/08 02:28:19;;;;;;;11.30;5.10;;;1.90;99.90;;;;;;5053258;28;20410;-78
2022/01/08 02:30:45;;;;;;;11.67;5.13;;;1.90;99.90;;;;;;5036980;28;20431;-78
2022/01/08 02:33:10;;;;;;;10.20;5.10;;;1.90;99.90;;;;;;5052839;28;20399;-78
2022/01/08 02:35:36;;;;;;;10.23;4.90;;;1.90;99.90;;;;;;5053149;28;20469;-78
2022/01/08 02:38:03;;;;;;;8.00;4.33;;;2.00;99.90;;;;;;5052937;28;21008;-79
2022/01/08 02:40:29;;;;;;;10.60;4.55;;;2.00;99.90;;;;;;5052163;28;20910;-79
2022/01/08 02:43:02;;;;;;;11.02;5.05;;;2.00;99.90;;;;;;5035988;28;20410;-78
2022/01/08 02:45:29;;;;;;;9.50;5.37;;;2.00;99.90;;;;;;5034796;28;20488;-79
2022/01/08 02:47:55;;;;;;;12.07;5.82;;;2.00;99.90;;;;;;5035367;28;20461;-78
2022/01/08 02:50:22;;;;;;;10.38;5.55;;;2.00;99.90;;;;;;5051806;28;20400;-78
2022/01/08 02:52:48;;;;;;;9.30;4.68;;;1.90;99.90;;;;;;5069756;28;20806;-78
2022/01/08 02:55:17;;;;;;;8.85;5.25;;;1.90;99.90;;;;;;5035435;28;20399;-78
2022/01/08 02:57:42;;;;;;;13.15;5.35;;;1.80;99.90;;;;;;5068763;28;20404;-78
2022/01/08 03:00:10;;;;;;;10.95;4.85;;;1.80;99.90;;;;;;5068792;28;20718;-78
2022/01/08 03:02:44;;;;;;;10.52;5.03;;;1.80;99.90;;;;;;5035225;28;20404;-78
2022/01/08 03:05:11;;;;;;;11.52;5.03;;;1.70;99.90;;;;;;5051761;28;20442;-78
2022/01/08 03:07:38;;;;;;;9.83;5.20;;;1.70;99.90;;;;;;5035472;28;20769;-78
2022/01/08 03:10:05;;;;;;;;;;;1.70;99.90;;;;;;5052954;28;20295;-78
2022/01/08 03:12:30;;;;;;;;;;;1.60;99.90;;;;;;5036490;28;19924;-78
2022/01/08 03:14:56;;;;;;;;;;;1.60;99.90;;;;;;5053495;28;19927;-78
2022/01/08 03:17:21;;;;;;;8.20;2.90;;;1.60;99.90;;;;;;5047247;28;20320;-78
2022/01/08 03:19:50;;;;;;;;;;;1.60;99.90;;;;;;5090807;28;20075;-77
2022/01/08 03:22:16;;;;;;;7.00;3.53;;;1.60;99.90;;;;;;5056191;28;19927;-78
2022/01/08 03:24:42;;;;;;;;;;;1.60;99.90;;;;;;5073397;28;20044;-78
2022/01/08 03:27:08;;;;;;;7.38;2.92;;;1.50;99.90;;;;;;5090621;28;20607;-78
2022/01/08 03:29:33;;;;;;;8.98;3.45;;;1.50;99.90;;;;;;5056032;28;20048;-78
2022/01/08 03:31:59;;;;;;;10.43;5.50;;;1.50;99.90;;;;;;5071561;28;20406;-78
2022/01/08 03:34:24;;;;;;;11.73;5.80;;;1.50;99.90;;;;;;5054561;28;20406;-78
2022/01/08 03:36:50;;;;;;;13.05;6.07;;;1.50;99.90;;;;;;5070841;28;20485;-78
2022/01/08 03:39:16;;;;;;;9.10;3.72;;;1.50;99.90;;;;;;5072277;28;20044;-78
2022/01/08 03:41:42;;;;;;;9.63;4.03;;;1.40;99.90;;;;;;5072575;28;20486;-78
2022/01/08 03:44:08;;;;;;;12.50;3.33;;;1.40;99.90;;;;;;5072287;28;20048;-78
2022/01/08 03:46:36;;;;;;;12.55;5.10;;;1.40;99.90;;;;;;5088879;28;20796;-78
2022/01/08 03:51:29;;;;;;;10.77;4.85;;;1.40;99.90;;;;;;5071381;28;20404;-78
2022/01/08 03:53:55;;;;;;;11.93;5.32;;;1.40;99.90;;;;;;5089936;28;20397;-78
2022/01/08 03:56:20;;;;;;;12.23;5.28;;;1.40;99.90;;;;;;5054982;28;20398;-78
2022/01/08 03:58:46;;;;;;;10.90;4.60;;;1.40;99.90;;;;;;5055112;28;20398;-78
2022/01/08 04:01:12;;;;;;;10.30;4.90;;;1.30;99.90;;;;;;5071964;28;20445;-78
2022/01/08 04:03:37;;;;;;;8.15;2.92;;;1.30;99.90;;;;;;5091102;28;20100;-78
2022/01/08 04:06:03;;;;;;;8.20;2.72;;;1.30;99.90;;;;;;5072593;28;20056;-78
2022/01/08 04:08:29;;;;;;;8.10;3.03;;;1.30;99.90;;;;;;5072752;28;20796;-78
2022/01/08 04:10:54;;;;;;;6.38;2.08;;;1.40;99.90;;;;;;5072105;28;20412;-78
2022/01/08 04:13:25;;;;;;;5.00;2.58;;;1.40;99.90;;;;;;5072364;28;20067;-78
2022/01/08 04:15:54;;;;;;;9.40;2.70;;;1.40;99.90;;;;;;5072687;28;20048;-78
2022/01/08 04:18:20;;;;;;;9.38;2.35;;;1.50;99.90;;;;;;5053754;28;20171;-78
2022/01/08 04:23:22;;;;;;;7.90;2.97;;;1.50;99.90;;;;;;5052346;28;20453;-78
2022/01/08 04:25:49;;;;;;;6.97;2.50;;;1.50;99.90;;;;;;5035792;28;20071;-78
2022/01/08 04:28:16;;;;;;;9.05;2.75;;;1.40;99.90;;;;;;5052666;28;20047;-78
2022/01/08 04:30:42;;;;;;;5.97;2.50;;;1.40;99.90;;;;;;5070302;28;20079;-78
2022/01/08 04:33:08;;;;;;;7.45;2.50;;;1.40;99.90;;;;;;5052362;28;20040;-78
2022/01/08 04:35:33;;;;;;;8.20;2.80;;;1.50;99.90;;;;;;5052025;28;20478;-78
2022/01/08 04:37:59;;;;;;;12.77;2.80;;;1.40;99.90;;;;;;5035904;28;20123;-78
2022/01/08 04:40:25;;;;;;;6.13;2.25;;;1.40;99.90;;;;;;5069158;28;20596;-78
2022/01/08 04:42:50;;;;;;;10.95;3.20;;;1.40;99.90;;;;;;5034691;28;20049;-79
2022/01/08 04:45:16;;;;;;;8.25;2.60;;;1.40;99.90;;;;;;5051275;28;20533;-78
2022/01/08 04:47:42;;;;;;;8.68;2.67;;;1.40;99.90;;;;;;5051042;28;20072;-78
2022/01/08 04:50:12;;;;;;;13.55;3.00;;;1.40;99.90;;;;;;5051059;28;20466;-78
2022/01/08 04:52:38;;;;;;;7.10;2.47;;;1.40;99.90;;;;;;5051216;28;20128;-78
2022/01/08 04:55:03;;;;;;;;;;;1.40;99.90;;;;;;5051687;28;20643;-79
2022/01/08 04:57:29;;;;;;;;;;;1.40;99.90;;;;;;5067563;28;19924;-78
2022/01/08 04:59:54;;;;;;;5.63;2.15;;;1.30;99.90;;;;;;5034354;28;19920;-78
2022/01/08 05:02:20;;;;;;;3.47;1.55;;;1.30;99.90;;;;;;5051276;28;20111;-78
2022/01/08 05:04:46;;;;;;;8.43;2.20;;;1.30;99.90;;;;;;5050880;28;20132;-78
2022/01/08 05:07:11;;;;;;;6.80;1.98;;;1.30;99.90;;;;;;5050676;28;20059;-78
2022/01/08 05:09:37;;;;;;;;;;;1.30;99.90;;;;;;5050872;28;20132;-78
2022/01/08 05:12:03;;;;;;;5.90;1.80;;;1.30;99.90;;;;;;5084640;28;19963;-78
2022/01/08 05:14:28;;;;;;;6.32;1.88;;;1.30;99.90;;;;;;5034486;28;20048;-78
2022/01/08 05:16:59;;;;;;;7.88;3.15;;;1.20;99.90;;;;;;5056610;28;20405;-78
2022/01/08 05:19:39;;;;;;;9.88;2.80;;;1.30;99.90;;;;;;5069140;28;20500;-78
2022/01/08 05:22:06;;;;;;;9.95;2.83;;;1.30;99.90;;;;;;5069101;28;20425;-77
2022/01/08 05:24:33;;;;;;;7.75;2.67;;;1.30;99.90;;;;;;5052589;28;20413;-78
2022/01/08 05:26:59;;;;;;;6.55;2.45;;;1.30;99.90;;;;;;5052271;28;20971;-78
2022/01/08 05:29:25;;;;;;;7.18;2.58;;;1.20;99.90;;;;;;5069479;28;20472;-78
2022/01/08 05:31:52;;;;;;;7.97;2.43;;;1.30;99.90;;;;;;5069268;28;20926;-78
2022/01/08 05:34:17;;;;;;;8.80;2.30;;;1.30;99.90;;;;;;5052308;28;20414;-79
2022/01/08 05:36:43;;;;;;;9.57;2.57;;;1.30;99.90;;;;;;5068910;28;20402;-78
2022/01/08 05:39:08;;;;;;;8.07;2.53;;;1.30;99.90;;;;;;5069606;28;20456;-78
2022/01/08 05:41:34;;;;;;;10.13;2.70;;;1.30;99.90;;;;;;5068901;28;20416;-78
2022/01/08 05:44:00;;;;;;;9.02;2.28;;;1.30;99.90;;;;;;5069168;28;20410;-78
2022/01/08 05:46:25;;;;;;;10.40;2.63;;;1.30;99.90;;;;;;5069144;28;20469;-78
2022/01/08 05:48:51;;;;;;;7.75;1.73;;;1.40;99.90;;;;;;5070548;28;20048;-78
2022/01/08 05:51:16;;;;;;;8.65;2.33;;;1.40;99.90;;;;;;5052402;28;20394;-78
2022/01/08 05:53:42;;;;;;;8.20;2.50;;;1.40;99.90;;;;;;5068707;28;20460;-78
2022/01/08 05:56:08;;;;;;;8.90;2.30;;;1.40;99.90;;;;;;5069512;28;20849;-79
2022/01/08 05:58:34;;;;;;;8.55;2.58;;;1.40;99.90;;;;;;5053332;28;20440;-78
2022/01/08 06:00:59;;;;;;;7.93;2.33;;;1.40;99.90;;;;;;5087524;28;20398;-78
2022/01/08 06:03:25;;;;;;;9.20;2.50;;;1.40;99.90;;;;;;5070076;28;20755;-78
2022/01/08 06:05:51;;;;;;;9.27;2.60;;;1.40;99.90;;;;;;5053151;28;20950;-78
2022/01/08 06:08:17;;;;;;;11.80;2.70;;;1.30;99.90;;;;;;5069907;28;20496;-79
2022/01/08 06:10:43;;;;;;;10.25;2.63;;;1.30;99.90;;;;;;5069657;28;20501;-78
2022/01/08 06:13:08;;;;;;;8.40;2.40;;;1.30;99.90;;;;;;5069983;28;20410;-78
2022/01/08 06:15:34;;;;;;;6.73;2.47;;;1.30;99.90;;;;;;5088013;28;20459;-78
2022/01/08 06:17:59;;;;;;;8.88;2.53;;;1.30;99.90;;;;;;5071138;28;20821;-78
2022/01/08 06:20:25;;;;;;;8.27;2.70;;;1.30;99.90;;;;;;5033315;28;20498;-78
2022/01/08 06:22:51;;;;;;;9.70;2.20;;;1.30;99.90;;;;;;5049920;28;20450;-78
2022/01/08 06:25:16;;;;;;;8.05;2.40;;;1.30;99.90;;;;;;5032896;28;20480;-78
2022/01/08 06:27:42;;;;;;;9.87;2.37;;;1.30;99.90;;;;;;5049423;28;20407;-78
2022/01/08 06:30:08;;;;;;;7.00;2.35;;;1.30;99.90;;;;;;5049680;28;20921;-78
2022/01/08 06:32:34;;;;;;;7.45;2.38;;;1.30;99.90;;;;;;5050172;28;20412;-78
2022/01/08 06:35:01;;;;;;;8.98;2.10;;;1.40;99.90;;;;;;5053329;28;20460;-78
2022/01/08 06:37:26;;;;;;;9.98;2.63;;;1.30;99.90;;;;;;5053033;28;20418;-78
2022/01/08 06:39:52;;;;;;;10.00;2.70;;;1.30;99.90;;;;;;5036770;28;20407;-78
2022/01/08 06:42:18;;;;;;;8.43;2.42;;;1.30;99.90;;;;;;5053136;28;20427;-79
2022/01/08 06:44:43;;;;;;;10.23;2.80;;;1.30;99.90;;;;;;5053131;28;20419;-78
2022/01/08 06:47:09;;;;;;;9.87;2.73;;;1.20;99.90;;;;;;5053157;28;20411;-78
2022/01/08 06:49:34;;;;;;;9.88;3.03;;;1.20;99.90;;;;;;5053213;28;20572;-78
2022/01/08 06:52:00;;;;;;;11.48;3.20;;;1.20;99.90;;;;;;5070883;28;20868;-78
2022/01/08 06:54:25;;;;;;;9.17;3.00;;;1.20;99.90;;;;;;5070866;28;20402;-78
2022/01/08 06:56:51;;;;;;;9.60;2.78;;;1.20;99.90;;;;;;5036209;28;20453;-78
2022/01/08 06:59:17;;;;;;;8.70;3.00;;;1.20;99.90;;;;;;5052732;28;20404;-78
2022/01/08 07:01:42;;;;;;;12.40;3.80;;;1.10;99.90;;;;;;5036355;28;20403;-78
2022/01/08 07:04:08;;;;;;;11.98;3.97;;;1.10;99.90;;;;;;5036637;28;20893;-78
2022/01/08 07:06:33;;;;;;;11.37;3.67;;;1.10;99.90;;;;;;5052922;28;20435;-78
2022/01/08 07:08:59;;;;;;;11.07;4.15;;;1.10;99.90;;;;;;5052222;28;20507;-79
2022/01/08 07:11:25;;;;;;;12.75;4.60;;;1.00;99.90;;;;;;5052865;28;20407;-78
2022/01/08 07:13:50;;;;;;;14.60;5.60;;;1.10;99.90;;;;;;5052662;28;20469;-78
2022/01/08 07:16:16;;;;;;;13.68;5.97;;;1.00;99.90;;;;;;5054492;28;20404;-78
2022/01/08 07:18:42;;;;;;;17.30;7.50;;;1.00;99.90;;;;;;5072741;28;20398;-78
2022/01/08 07:21:07;;;;;;;18.33;8.17;;;1.00;99.90;;;;;;5072490;28;20410;-78
2022/01/08 07:23:33;;;;;;;22.00;9.23;;;1.00;99.90;;;;;;5072351;28;20421;-78
2022/01/08 07:25:58;;;;;;;21.98;9.32;;;1.00;99.90;;;;;;5072191;28;21494;-78
2022/01/08 07:28:24;;;;;;;21.07;10.63;;;1.00;99.90;;;;;;5072831;28;20402;-78
2022/01/08 07:30:50;;;;;;;21.23;10.45;;;1.00;99.90;;;;;;5072078;28;20397;-78
2022/01/08 07:33:15;;;;;;;20.73;10.53;;;1.00;99.90;;;;;;5055991;28;20405;-78
2022/01/08 07:35:41;;;;;;;24.97;11.53;;;1.00;99.90;;;;;;5071909;28;20441;-78
2022/01/08 07:38:07;;;;;;;21.33;10.60;;;1.00;99.90;;;;;;5072392;28;20772;-78
2022/01/08 07:40:32;;;;;;;23.00;11.67;;;1.00;99.90;;;;;;5072031;28;20433;-79
2022/01/08 07:42:58;;;;;;;24.13;11.50;;;1.00;99.90;;;;;;5089920;28;20461;-78
2022/01/08 07:45:23;;;;;;;25.52;11.60;;;1.00;99.90;;;;;;5089148;28;21174;-79
2022/01/08 07:47:49;;;;;;;25.00;11.80;;;1.00;99.90;;;;;;5071662;28;20402;-79
2022/01/08 07:50:16;;;;;;;26.23;12.50;;;1.00;99.90;;;;;;5071421;28;20803;-78
2022/01/08 07:52:42;;;;;;;21.50;11.70;;;1.00;99.90;;;;;;5090558;28;20794;-78
2022/01/08 07:55:09;;;;;;;24.03;12.00;;;1.00;99.90;;;;;;5055459;28;20455;-78
2022/01/08 07:57:34;;;;;;;23.90;12.57;;;0.90;99.90;;;;;;5071570;28;20911;-78
2022/01/08 08:00:00;;;;;;;23.33;11.77;;;0.90;99.90;;;;;;5071700;28;20406;-78
2022/01/08 08:02:26;;;;;;;27.80;13.70;;;0.90;99.90;;;;;;5072021;28;20410;-80
2022/01/08 08:04:51;;;;;;;21.85;11.85;;;1.00;99.90;;;;;;5071914;28;20451;-78
2022/01/08 08:07:36;;;;;;;25.58;12.70;;;1.00;99.90;;;;;;5071786;28;20892;-78
2022/01/08 08:10:03;;;;;;;22.87;13.10;;;1.00;99.90;;;;;;5070918;28;20414;-78
2022/01/08 08:12:29;;;;;;;26.02;13.82;;;1.00;99.90;;;;;;5071385;28;20459;-78
2022/01/08 08:14:55;;;;;;;25.77;13.83;;;1.10;99.90;;;;;;5071782;28;20798;-78
2022/01/08 08:17:20;;;;;;;23.35;11.10;;;1.10;99.90;;;;;;5060496;28;20978;-78
2022/01/08 08:19:46;;;;;;;23.83;10.80;;;1.10;99.90;;;;;;5069108;28;20387;-78
2022/01/08 08:22:11;;;;;;;20.20;9.83;;;1.10;99.90;;;;;;5034535;28;21015;-78
2022/01/08 08:24:38;;;;;;;20.52;9.68;;;1.10;99.90;;;;;;5051321;28;20407;-78
2022/01/08 08:27:03;;;;;;;23.38;10.25;;;1.20;99.90;;;;;;5050964;28;20461;-78
2022/01/08 08:29:29;;;;;;;22.10;9.30;;;1.20;99.90;;;;;;5058449;28;20514;-79
2022/01/08 08:31:55;;;;;;;18.20;9.70;;;1.20;99.90;;;;;;5068695;28;20406;-80
2022/01/08 08:34:20;;;;;;;20.20;8.93;;;1.20;99.90;;;;;;5052702;28;20532;-79
2022/01/08 08:36:46;;;;;;;21.20;8.98;;;1.20;99.90;;;;;;5087137;28;20413;-79
2022/01/08 08:39:11;;;;;;;20.73;8.60;;;1.30;99.90;;;;;;5069345;28;20476;-79
2022/01/08 08:41:37;;;;;;;18.45;9.07;;;1.30;99.90;;;;;;5083149;28;20483;-79
2022/01/08 08:44:03;;;;;;;22.00;8.40;;;1.30;99.90;;;;;;5069075;28;20915;-78
2022/01/08 08:46:28;;;;;;;15.50;7.97;;;1.40;99.90;;;;;;5069261;28;20422;-78
2022/01/08 08:48:54;;;;;;;16.33;7.65;;;1.40;99.90;;;;;;5069868;28;20497;-78
2022/01/08 08:51:20;;;;;;;20.90;8.27;;;1.50;99.90;;;;;;5069558;28;20402;-78
2022/01/08 08:53:45;;;;;;;16.20;8.03;;;1.50;99.90;;;;;;5069494;28;20456;-78
2022/01/08 08:56:11;;;;;;;14.07;7.22;;;1.60;99.90;;;;;;5087329;28;20437;-78
2022/01/08 08:58:36;;;;;;;16.30;6.80;;;1.60;99.90;;;;;;5069641;28;20984;-78
2022/01/08 09:01:02;;;;;;;18.53;7.63;;;1.60;99.90;;;;;;5069579;28;20472;-78
2022/01/08 09:03:28;;;;;;;16.17;6.82;;;1.70;99.90;;;;;;5053190;28;20512;-78
2022/01/08 09:05:53;;;;;;;16.13;7.07;;;1.70;99.90;;;;;;5088039;28;20787;-74
2022/01/08 09:08:19;;;;;;;17.73;7.37;;;1.70;99.90;;;;;;5088775;28;20886;-75
2022/01/08 09:10:45;;;;;;;18.02;7.03;;;1.80;99.90;;;;;;5070301;28;20406;-75
2022/01/08 09:13:10;;;;;;;16.40;6.20;;;1.80;99.90;;;;;;5054175;28;20407;-76
2022/01/08 09:15:41;;;;;;;16.27;6.67;;;1.80;99.90;;;;;;5066165;28;20410;-76
2022/01/08 09:18:08;;;;;;;16.65;6.97;;;1.80;99.90;;;;;;5084778;28;20451;-76
2022/01/08 09:20:33;;;;;;;13.10;5.97;;;1.80;99.90;;;;;;5070369;28;20414;-76
2022/01/08 09:22:59;;;;;;;15.27;6.17;;;1.90;99.90;;;;;;5057106;28;20812;-76
2022/01/08 09:25:26;;;;;;;20.17;6.90;;;1.90;99.90;;;;;;5066333;28;20800;-77
2022/01/08 09:27:51;;;;;;;12.67;6.07;;;1.90;99.90;;;;;;5065128;28;20398;-78
2022/01/08 09:30:17;;;;;;;15.83;6.17;;;1.90;99.90;;;;;;5070426;28;20448;-77
2022/01/08 09:32:46;;;;;;;15.80;6.75;;;1.90;99.90;;;;;;5070219;28;20815;-78
2022/01/08 09:35:13;;;;;;;15.00;6.43;;;2.00;99.90;;;;;;5056732;28;20500;-78
2022/01/08 09:37:39;;;;;;;13.83;6.60;;;2.00;99.90;;;;;;5049887;28;20747;-77
2022/01/08 09:40:08;;;;;;;14.90;6.67;;;2.00;99.90;;;;;;5033543;28;20412;-77
2022/01/08 09:42:34;;;;;;;17.23;6.95;;;2.10;99.90;;;;;;5051001;28;20926;-77
2022/01/08 09:44:59;;;;;;;17.85;6.60;;;2.10;99.90;;;;;;5083518;28;20434;-77
2022/01/08 09:47:25;;;;;;;16.05;7.00;;;2.10;99.90;;;;;;5082250;28;20437;-77
2022/01/08 09:49:51;;;;;;;17.43;6.83;;;2.10;99.90;;;;;;5061567;28;20497;-77
2022/01/08 09:52:17;;;;;;;12.23;6.60;;;2.20;99.90;;;;;;5069596;28;20467;-78
2022/01/08 09:54:43;;;;;;;16.67;6.63;;;2.20;99.90;;;;;;5082070;28;20420;-77
2022/01/08 09:57:08;;;;;;;13.70;6.55;;;2.20;99.90;;;;;;5067162;28;20403;-77
2022/01/08 09:59:34;;;;;;;18.40;6.70;;;2.30;99.90;;;;;;5087533;28;20492;-77
2022/01/08 10:02:01;;;;;;;13.87;6.70;;;2.30;99.90;;;;;;5052246;28;20416;-77
2022/01/08 10:04:29;;;;;;;21.15;6.22;;;2.40;99.90;;;;;;5061208;28;20112;-77
2022/01/08 10:07:20;;;;;;;9.23;4.60;;;2.50;99.90;;;;;;5081887;28;20051;-77
2022/01/08 10:10:12;;;;;;;15.88;4.97;;;2.60;99.90;;;;;;5078338;28;20060;-78
2022/01/08 10:13:01;;;;;;;13.25;5.45;;;2.80;99.90;;;;;;5054524;28;20044;-78
2022/01/08 10:18:36;;;;;;;15.57;5.32;;;2.90;99.90;;;;;;5059668;28;20453;-77
2022/01/08 10:21:23;;;;;;;15.35;4.90;;;2.90;99.90;;;;;;5074927;28;20044;-78
2022/01/08 10:24:05;;;;;;;13.43;6.38;;;3.00;99.90;;;;;;5091867;28;20395;-78
2022/01/08 10:26:43;;;;;;;17.90;4.95;;;3.00;99.90;;;;;;5079590;28;20074;-76
2022/01/08 10:29:13;;;;;;;15.90;5.75;;;3.00;99.90;;;;;;5070447;28;20119;-74
2022/01/08 10:31:41;;;;;;;11.85;4.32;;;3.10;99.90;;;;;;5063876;28;20587;-78
2022/01/08 10:34:11;;;;;;;20.20;5.80;;;3.10;99.90;;;;;;5074308;28;20048;-76
2022/01/08 10:36:42;;;;;;;11.80;4.30;;;3.10;99.90;;;;;;5072600;28;20055;-78
2022/01/08 10:39:18;;;;;;;12.68;4.82;;;3.10;99.90;;;;;;5058112;28;20121;-78
2022/01/08 10:41:45;;;;;;;10.23;5.53;;;3.10;99.90;;;;;;5074334;28;20044;-76
2022/01/08 10:44:17;;;;;;;16.55;4.63;;;3.10;99.90;;;;;;5054346;28;20136;-76
2022/01/08 10:46:53;;;;;;;10.38;4.30;;;3.10;99.90;;;;;;5054282;28;20078;-76
2022/01/08 10:49:29;;;;;;;14.07;4.72;;;3.10;99.90;;;;;;5039643;28;20040;-76
2022/01/08 10:51:57;;;;;;;13.98;5.28;;;3.10;99.90;;;;;;5074634;28;20106;-76
2022/01/08 10:54:30;;;;;;;17.38;5.10;;;3.10;99.90;;;;;;5074311;28;20056;-76
2022/01/08 10:57:02;;;;;;;15.67;4.90;;;3.10;99.90;;;;;;5073562;28;20070;-76
2022/01/08 10:59:30;;;;;;;13.18;4.80;;;3.20;99.90;;;;;;5057497;28;20091;-76
2022/01/08 11:02:10;;;;;;;10.80;5.28;;;3.20;99.90;;;;;;5074020;28;20044;-76
2022/01/08 11:04:49;;;;;;;11.15;4.50;;;3.20;99.90;;;;;;5074063;28;20472;-76
2022/01/08 11:07:17;;;;;;;9.70;4.72;;;3.10;99.90;;;;;;5074105;28;20067;-76
2022/01/08 11:09:45;;;;;;;13.18;4.88;;;3.20;99.90;;;;;;5073573;28;20094;-76
2022/01/08 11:12:16;;;;;;;19.58;5.10;;;3.20;99.90;;;;;;5074325;28;20047;-76
2022/01/08 11:17:29;;;;;;;17.83;5.32;;;3.20;99.90;;;;;;5072382;28;20044;-76
2022/01/08 11:20:07;;;;;;;12.20;5.25;;;3.20;99.90;;;;;;5072446;28;20040;-76
2022/01/08 11:22:34;;;;;;;13.50;4.50;;;3.30;99.90;;;;;;5074147;28;20059;-76
2022/01/08 11:25:14;;;;;;;10.23;4.80;;;3.40;99.90;;;;;;5073311;28;20127;-76
2022/01/08 11:28:09;;;;;;;14.10;5.07;;;3.50;99.90;;;;;;5073803;28;20521;-76
2022/01/08 11:30:41;;;;;;;14.65;5.68;;;3.60;99.90;;;;;;5073362;28;20059;-77
2022/01/08 11:33:14;;;;;;;17.42;6.90;;;3.70;99.90;;;;;;5072097;28;20926;-76
2022/01/08 11:35:42;;;;;;;15.23;7.22;;;3.80;99.90;;;;;;5071795;28;20410;-76
2022/01/08 11:38:10;;;;;;;15.67;8.07;;;4.00;99.90;;;;;;5071816;28;20481;-76
2022/01/08 11:40:41;;;;;;;16.55;8.65;;;4.10;99.90;;;;;;5071692;28;20412;-76
2022/01/08 11:43:09;;;;;;;15.68;7.47;;;4.20;99.90;;;;;;5072459;28;20421;-76
2022/01/08 11:45:38;;;;;;;14.52;6.90;;;4.20;99.90;;;;;;5072367;28;20434;-77
2022/01/08 11:48:07;;;;;;;13.38;6.80;;;4.20;99.90;;;;;;5072080;28;20845;-76
2022/01/08 11:50:33;;;;;;;18.00;7.22;;;4.30;99.90;;;;;;5072410;28;20734;-76
2022/01/08 11:53:19;;;;;;;13.50;7.13;;;4.20;99.90;;;;;;5072160;28;20417;-76
2022/01/08 11:55:48;;;;;;;15.77;8.05;;;4.20;99.90;;;;;;5071356;28;20530;-75
2022/01/08 11:58:23;;;;;;;15.03;8.83;;;4.20;99.90;;;;;;5090178;28;20422;-76
2022/01/08 12:01:01;;;;;;;13.68;7.28;;;4.20;99.90;;;;;;5071757;28;20757;-76
2022/01/08 12:03:36;;;;;;;14.67;7.50;;;4.10;99.90;;;;;;5071240;28;20459;-77
2022/01/08 12:06:26;;;;;;;14.45;8.38;;;4.10;99.90;;;;;;5054298;28;20433;-78
2022/01/08 12:09:07;;;;;;;18.97;9.03;;;4.00;99.90;;;;;;5054782;28;20406;-78
2022/01/08 12:11:36;;;;;;;15.65;9.10;;;3.90;99.90;;;;;;5070177;28;20418;-78
2022/01/08 12:14:12;;;;;;;16.98;8.85;;;3.80;99.90;;;;;;5044914;28;21272;-77
2022/01/08 12:16:40;;;;;;;18.20;9.60;;;3.80;99.90;;;;;;5065018;28;20415;-76
2022/01/08 12:19:08;;;;;;;17.92;9.30;;;3.70;99.90;;;;;;5050030;28;20415;-76
2022/01/08 12:21:40;;;;;;;14.10;9.45;;;3.70;99.90;;;;;;5050411;28;20770;-76
2022/01/08 12:24:27;;;;;;;14.43;9.35;;;3.70;99.90;;;;;;5050094;28;21189;-76
2022/01/08 12:26:58;;;;;;;19.85;9.95;;;3.70;99.90;;;;;;5033146;28;20431;-77
2022/01/08 12:29:38;;;;;;;16.83;9.63;;;3.70;99.90;;;;;;5053793;28;20452;-77
2022/01/08 12:35:38;;;;;;;16.05;9.60;;;3.70;99.90;;;;;;5068037;28;20426;-78
2022/01/08 12:38:07;;;;;;;17.15;9.80;;;3.70;99.90;;;;;;5049860;28;20420;-77
2022/01/08 12:40:35;;;;;;;17.15;9.90;;;3.80;99.90;;;;;;5082347;28;20402;-77
2022/01/08 12:43:20;;;;;;;16.40;9.38;;;3.80;99.90;;;;;;5070152;28;20423;-77
2022/01/08 12:45:48;;;;;;;17.23;10.30;;;3.80;99.90;;;;;;5088170;28;20970;-77
2022/01/08 12:48:14;;;;;;;17.73;10.48;;;3.80;99.90;;;;;;5070169;28;20767;-77
2022/01/08 12:50:43;;;;;;;18.70;10.48;;;3.80;99.90;;;;;;5070261;28;20413;-77
2022/01/08 12:53:14;;;;;;;18.80;11.17;;;3.80;99.90;;;;;;5051854;28;20488;-77
2022/01/08 12:55:48;;;;;;;17.73;11.43;;;3.80;99.90;;;;;;5032799;28;20984;-77
2022/01/08 12:58:15;;;;;;;17.88;10.90;;;3.80;99.90;;;;;;5049579;28;20469;-77
2022/01/08 13:01:01;;;;;;;19.00;11.85;;;3.70;99.90;;;;;;5049479;28;20979;-77
2022/01/08 13:03:29;;;;;;;21.35;13.43;;;3.70;99.90;;;;;;5049556;28;20506;-77
2022/01/08 13:05:56;;;;;;;20.80;13.07;;;3.70;99.90;;;;;;5049280;28;20480;-77
2022/01/08 13:08:28;;;;;;;22.73;13.20;;;3.70;99.90;;;;;;5049361;28;20446;-77
2022/01/08 13:11:02;;;;;;;22.02;13.15;;;3.70;99.90;;;;;;5049220;28;20985;-78
2022/01/08 13:13:42;;;;;;;21.33;13.85;;;3.70;99.90;;;;;;5049638;28;20424;-78
2022/01/08 13:16:31;;;;;;;21.88;15.18;;;3.70;99.90;;;;;;5050372;28;20519;-78
2022/01/08 13:19:07;;;;;;;23.00;14.33;;;3.70;99.90;;;;;;5077109;28;20414;-77
2022/01/08 13:21:40;;;;;;;18.75;13.90;;;3.70;99.90;;;;;;5069821;28;20916;-77
2022/01/08 13:24:14;;;;;;;21.97;14.93;;;3.70;99.90;;;;;;5087242;28;20926;-77